sensor_id;sensor_type;location;lat;lon;timestamp;P1;durP1;ratioP1;P2;durP2;ratioP2
15476;SDS011;7840;42.702;23.296;2023-06-22T00:00:53;14.93;;;12.32;;
15476;SDS011;7840;42.702;23.296;2023-06-22T00:03:21;16.45;;;14.63;;
15476;SDS011;7840;42.702;23.296;2023-06-22T00:05:49;14.75;;;13.45;;
15476;SDS011;7840;42.702;23.296;2023-06-22T00:08:17;13.55;;;12.15;;
15476;SDS011;7840;42.702;23.296;2023-06-22T00:10:44;14.95;;;13.43;;
15476;SDS011;7840;42.702;23.296;2023-06-22T00:13:12;18.92;;;13.07;;
15476;SDS011;7840;42.702;23.296;2023-06-22T00:15:41;15.05;;;13.65;;
15476;SDS011;7840;42.702;23.296;2023-06-22T00:18:10;16.00;;;14.40;;
15476;SDS011;7840;42.702;23.296;2023-06-22T00:20:38;16.58;;;14.80;;
15476;SDS011;7840;42.702;23.296;2023-06-22T00:23:06;17.23;;;15.45;;
15476;SDS011;7840;42.702;23.296;2023-06-22T00:25:34;21.05;;;14.95;;
15476;SDS011;7840;42.702;23.296;2023-06-22T00:28:01;17.48;;;14.45;;
15476;SDS011;7840;42.702;23.296;2023-06-22T00:30:29;15.95;;;14.13;;
15476;SDS011;7840;42.702;23.296;2023-06-22T00:32:57;16.80;;;14.43;;
15476;SDS011;7840;42.702;23.296;2023-06-22T00:35:26;15.75;;;14.15;;
15476;SDS011;7840;42.702;23.296;2023-06-22T00:37:54;15.30;;;13.23;;
15476;SDS011;7840;42.702;23.296;2023-06-22T00:40:25;13.43;;;12.05;;
15476;SDS011;7840;42.702;23.296;2023-06-22T00:42:53;13.73;;;12.30;;
15476;SDS011;7840;42.702;23.296;2023-06-22T00:45:21;14.10;;;12.75;;
15476;SDS011;7840;42.702;23.296;2023-06-22T00:47:49;15.25;;;13.43;;
15476;SDS011;7840;42.702;23.296;2023-06-22T00:50:18;19.90;;;14.77;;
15476;SDS011;7840;42.702;23.296;2023-06-22T00:52:47;16.27;;;14.73;;
15476;SDS011;7840;42.702;23.296;2023-06-22T00:55:15;16.55;;;14.75;;
15476;SDS011;7840;42.702;23.296;2023-06-22T00:57:46;17.67;;;15.93;;
15476;SDS011;7840;42.702;23.296;2023-06-22T01:00:14;15.93;;;14.32;;
15476;SDS011;7840;42.702;23.296;2023-06-22T01:02:42;19.30;;;15.43;;
15476;SDS011;7840;42.702;23.296;2023-06-22T01:05:11;16.90;;;15.40;;
15476;SDS011;7840;42.702;23.296;2023-06-22T01:07:40;19.92;;;17.92;;
15476;SDS011;7840;42.702;23.296;2023-06-22T01:10:12;19.42;;;17.30;;
15476;SDS011;7840;42.702;23.296;2023-06-22T01:12:42;17.70;;;15.93;;
15476;SDS011;7840;42.702;23.296;2023-06-22T01:15:13;17.63;;;15.90;;
15476;SDS011;7840;42.702;23.296;2023-06-22T01:17:42;23.02;;;17.80;;
15476;SDS011;7840;42.702;23.296;2023-06-22T01:20:11;20.30;;;17.83;;
15476;SDS011;7840;42.702;23.296;2023-06-22T01:22:43;18.77;;;16.85;;
15476;SDS011;7840;42.702;23.296;2023-06-22T01:25:16;17.38;;;15.75;;
15476;SDS011;7840;42.702;23.296;2023-06-22T01:27:47;15.75;;;14.15;;
15476;SDS011;7840;42.702;23.296;2023-06-22T01:30:18;15.88;;;14.25;;
15476;SDS011;7840;42.702;23.296;2023-06-22T01:32:46;14.85;;;13.13;;
15476;SDS011;7840;42.702;23.296;2023-06-22T01:35:14;14.75;;;11.68;;
15476;SDS011;7840;42.702;23.296;2023-06-22T01:37:42;14.70;;;13.27;;
15476;SDS011;7840;42.702;23.296;2023-06-22T01:40:09;16.52;;;14.00;;
15476;SDS011;7840;42.702;23.296;2023-06-22T01:42:37;17.60;;;16.00;;
15476;SDS011;7840;42.702;23.296;2023-06-22T01:45:05;18.88;;;16.83;;
15476;SDS011;7840;42.702;23.296;2023-06-22T01:47:35;18.55;;;16.67;;
15476;SDS011;7840;42.702;23.296;2023-06-22T01:50:02;19.63;;;17.63;;
15476;SDS011;7840;42.702;23.296;2023-06-22T01:52:30;20.15;;;16.85;;
15476;SDS011;7840;42.702;23.296;2023-06-22T01:54:59;20.05;;;18.02;;
15476;SDS011;7840;42.702;23.296;2023-06-22T01:57:26;16.65;;;15.05;;
15476;SDS011;7840;42.702;23.296;2023-06-22T01:59:56;18.00;;;16.23;;
15476;SDS011;7840;42.702;23.296;2023-06-22T02:02:25;17.55;;;15.90;;
15476;SDS011;7840;42.702;23.296;2023-06-22T02:04:57;18.40;;;16.70;;
15476;SDS011;7840;42.702;23.296;2023-06-22T02:07:28;21.95;;;16.50;;
15476;SDS011;7840;42.702;23.296;2023-06-22T02:09:57;17.60;;;16.10;;
15476;SDS011;7840;42.702;23.296;2023-06-22T02:12:25;17.30;;;15.80;;
15476;SDS011;7840;42.702;23.296;2023-06-22T02:14:54;15.20;;;13.70;;
15476;SDS011;7840;42.702;23.296;2023-06-22T02:17:21;15.80;;;14.25;;
15476;SDS011;7840;42.702;23.296;2023-06-22T02:19:49;14.63;;;13.20;;
15476;SDS011;7840;42.702;23.296;2023-06-22T02:22:17;14.77;;;13.38;;
15476;SDS011;7840;42.702;23.296;2023-06-22T02:24:45;15.07;;;13.52;;
15476;SDS011;7840;42.702;23.296;2023-06-22T02:27:12;14.30;;;13.05;;
15476;SDS011;7840;42.702;23.296;2023-06-22T02:29:39;14.95;;;13.52;;
15476;SDS011;7840;42.702;23.296;2023-06-22T02:32:07;15.18;;;13.43;;
15476;SDS011;7840;42.702;23.296;2023-06-22T02:34:34;14.80;;;13.32;;
15476;SDS011;7840;42.702;23.296;2023-06-22T02:37:02;14.73;;;13.43;;
15476;SDS011;7840;42.702;23.296;2023-06-22T02:39:31;15.45;;;14.05;;
15476;SDS011;7840;42.702;23.296;2023-06-22T02:41:58;14.57;;;13.18;;
15476;SDS011;7840;42.702;23.296;2023-06-22T02:44:26;15.55;;;13.98;;
15476;SDS011;7840;42.702;23.296;2023-06-22T02:46:53;15.32;;;13.90;;
15476;SDS011;7840;42.702;23.296;2023-06-22T02:49:20;16.02;;;13.60;;
15476;SDS011;7840;42.702;23.296;2023-06-22T02:51:48;14.60;;;13.27;;
15476;SDS011;7840;42.702;23.296;2023-06-22T02:54:15;15.05;;;13.55;;
15476;SDS011;7840;42.702;23.296;2023-06-22T02:56:44;16.02;;;13.43;;
15476;SDS011;7840;42.702;23.296;2023-06-22T02:59:11;15.18;;;13.60;;
15476;SDS011;7840;42.702;23.296;2023-06-22T03:01:38;13.75;;;12.45;;
15476;SDS011;7840;42.702;23.296;2023-06-22T03:04:06;15.35;;;13.40;;
15476;SDS011;7840;42.702;23.296;2023-06-22T03:06:33;14.10;;;12.70;;
15476;SDS011;7840;42.702;23.296;2023-06-22T03:09:02;14.48;;;12.98;;
15476;SDS011;7840;42.702;23.296;2023-06-22T03:11:30;15.02;;;13.52;;
15476;SDS011;7840;42.702;23.296;2023-06-22T03:13:58;14.95;;;13.45;;
15476;SDS011;7840;42.702;23.296;2023-06-22T03:16:26;15.55;;;13.95;;
15476;SDS011;7840;42.702;23.296;2023-06-22T03:18:54;14.57;;;13.25;;
15476;SDS011;7840;42.702;23.296;2023-06-22T03:21:22;15.73;;;14.10;;
15476;SDS011;7840;42.702;23.296;2023-06-22T03:23:49;16.17;;;12.80;;
15476;SDS011;7840;42.702;23.296;2023-06-22T03:26:17;12.70;;;11.45;;
15476;SDS011;7840;42.702;23.296;2023-06-22T03:28:45;13.05;;;11.70;;
15476;SDS011;7840;42.702;23.296;2023-06-22T03:31:13;13.80;;;11.00;;
15476;SDS011;7840;42.702;23.296;2023-06-22T03:33:41;12.73;;;11.50;;
15476;SDS011;7840;42.702;23.296;2023-06-22T03:36:08;12.32;;;11.23;;
15476;SDS011;7840;42.702;23.296;2023-06-22T03:38:35;12.55;;;11.45;;
15476;SDS011;7840;42.702;23.296;2023-06-22T03:41:02;12.10;;;10.90;;
15476;SDS011;7840;42.702;23.296;2023-06-22T03:43:30;12.35;;;11.35;;
15476;SDS011;7840;42.702;23.296;2023-06-22T03:45:57;12.40;;;11.20;;
15476;SDS011;7840;42.702;23.296;2023-06-22T03:48:26;12.07;;;10.98;;
15476;SDS011;7840;42.702;23.296;2023-06-22T03:50:53;13.13;;;11.90;;
15476;SDS011;7840;42.702;23.296;2023-06-22T03:53:20;13.52;;;11.30;;
15476;SDS011;7840;42.702;23.296;2023-06-22T03:55:48;12.20;;;11.07;;
15476;SDS011;7840;42.702;23.296;2023-06-22T03:58:16;11.57;;;10.57;;
15476;SDS011;7840;42.702;23.296;2023-06-22T04:00:44;12.38;;;11.30;;
15476;SDS011;7840;42.702;23.296;2023-06-22T04:03:12;13.18;;;11.93;;
15476;SDS011;7840;42.702;23.296;2023-06-22T04:05:40;13.10;;;11.82;;
15476;SDS011;7840;42.702;23.296;2023-06-22T04:08:08;13.30;;;11.90;;
15476;SDS011;7840;42.702;23.296;2023-06-22T04:10:35;12.38;;;11.07;;
15476;SDS011;7840;42.702;23.296;2023-06-22T04:13:02;12.75;;;11.55;;
15476;SDS011;7840;42.702;23.296;2023-06-22T04:15:30;12.80;;;11.70;;
15476;SDS011;7840;42.702;23.296;2023-06-22T04:17:57;12.65;;;11.38;;
15476;SDS011;7840;42.702;23.296;2023-06-22T04:20:24;14.82;;;12.38;;
15476;SDS011;7840;42.702;23.296;2023-06-22T04:22:53;17.60;;;12.02;;
15476;SDS011;7840;42.702;23.296;2023-06-22T04:25:20;13.88;;;12.43;;
15476;SDS011;7840;42.702;23.296;2023-06-22T04:27:48;12.88;;;11.57;;
15476;SDS011;7840;42.702;23.296;2023-06-22T04:30:16;13.43;;;12.15;;
15476;SDS011;7840;42.702;23.296;2023-06-22T04:32:43;15.52;;;12.23;;
15476;SDS011;7840;42.702;23.296;2023-06-22T04:35:11;16.58;;;12.57;;
15476;SDS011;7840;42.702;23.296;2023-06-22T04:37:41;13.52;;;12.13;;
15476;SDS011;7840;42.702;23.296;2023-06-22T04:40:10;17.02;;;12.65;;
15476;SDS011;7840;42.702;23.296;2023-06-22T04:42:39;14.38;;;12.93;;
15476;SDS011;7840;42.702;23.296;2023-06-22T04:45:18;12.90;;;11.40;;
15476;SDS011;7840;42.702;23.296;2023-06-22T04:47:45;14.00;;;12.65;;
15476;SDS011;7840;42.702;23.296;2023-06-22T04:50:12;12.88;;;11.75;;
15476;SDS011;7840;42.702;23.296;2023-06-22T04:52:40;18.80;;;13.40;;
15476;SDS011;7840;42.702;23.296;2023-06-22T04:55:07;14.70;;;12.68;;
15476;SDS011;7840;42.702;23.296;2023-06-22T04:57:36;13.75;;;12.45;;
15476;SDS011;7840;42.702;23.296;2023-06-22T05:00:05;14.60;;;13.20;;
15476;SDS011;7840;42.702;23.296;2023-06-22T05:02:37;16.80;;;12.82;;
15476;SDS011;7840;42.702;23.296;2023-06-22T05:05:05;15.10;;;13.05;;
15476;SDS011;7840;42.702;23.296;2023-06-22T05:07:32;14.63;;;13.32;;
15476;SDS011;7840;42.702;23.296;2023-06-22T05:10:00;16.30;;;12.73;;
15476;SDS011;7840;42.702;23.296;2023-06-22T05:12:27;14.77;;;12.55;;
15476;SDS011;7840;42.702;23.296;2023-06-22T05:14:56;13.02;;;11.93;;
15476;SDS011;7840;42.702;23.296;2023-06-22T05:17:24;19.17;;;12.90;;
15476;SDS011;7840;42.702;23.296;2023-06-22T05:19:51;13.73;;;12.43;;
15476;SDS011;7840;42.702;23.296;2023-06-22T05:22:19;18.92;;;13.27;;
15476;SDS011;7840;42.702;23.296;2023-06-22T05:24:46;15.60;;;13.13;;
15476;SDS011;7840;42.702;23.296;2023-06-22T05:27:14;16.70;;;13.40;;
15476;SDS011;7840;42.702;23.296;2023-06-22T05:29:41;16.15;;;13.82;;
15476;SDS011;7840;42.702;23.296;2023-06-22T05:32:10;16.20;;;13.77;;
15476;SDS011;7840;42.702;23.296;2023-06-22T05:34:37;14.75;;;13.27;;
15476;SDS011;7840;42.702;23.296;2023-06-22T05:37:05;15.80;;;13.80;;
15476;SDS011;7840;42.702;23.296;2023-06-22T05:39:34;15.90;;;14.30;;
15476;SDS011;7840;42.702;23.296;2023-06-22T05:42:04;17.00;;;14.38;;
15476;SDS011;7840;42.702;23.296;2023-06-22T05:44:31;15.02;;;13.55;;
15476;SDS011;7840;42.702;23.296;2023-06-22T05:46:59;15.75;;;14.35;;
15476;SDS011;7840;42.702;23.296;2023-06-22T05:49:29;14.63;;;12.90;;
15476;SDS011;7840;42.702;23.296;2023-06-22T05:51:58;15.23;;;12.10;;
15476;SDS011;7840;42.702;23.296;2023-06-22T05:54:26;13.52;;;11.70;;
15476;SDS011;7840;42.702;23.296;2023-06-22T05:56:54;13.90;;;12.48;;
15476;SDS011;7840;42.702;23.296;2023-06-22T05:59:21;14.55;;;13.18;;
15476;SDS011;7840;42.702;23.296;2023-06-22T06:01:48;17.30;;;13.05;;
15476;SDS011;7840;42.702;23.296;2023-06-22T06:04:16;19.08;;;13.48;;
15476;SDS011;7840;42.702;23.296;2023-06-22T06:06:45;18.67;;;14.02;;
15476;SDS011;7840;42.702;23.296;2023-06-22T06:09:13;14.50;;;13.02;;
15476;SDS011;7840;42.702;23.296;2023-06-22T06:11:40;15.50;;;13.65;;
15476;SDS011;7840;42.702;23.296;2023-06-22T06:16:37;16.73;;;14.20;;
15476;SDS011;7840;42.702;23.296;2023-06-22T06:19:05;14.13;;;12.70;;
15476;SDS011;7840;42.702;23.296;2023-06-22T06:21:32;15.93;;;13.32;;
15476;SDS011;7840;42.702;23.296;2023-06-22T06:24:00;14.15;;;12.75;;
15476;SDS011;7840;42.702;23.296;2023-06-22T06:26:28;17.55;;;13.30;;
15476;SDS011;7840;42.702;23.296;2023-06-22T06:29:00;14.88;;;13.35;;
15476;SDS011;7840;42.702;23.296;2023-06-22T06:31:28;14.77;;;13.30;;
15476;SDS011;7840;42.702;23.296;2023-06-22T06:33:55;13.10;;;11.90;;
15476;SDS011;7840;42.702;23.296;2023-06-22T06:36:23;13.88;;;12.48;;
15476;SDS011;7840;42.702;23.296;2023-06-22T06:38:50;15.65;;;11.88;;
15476;SDS011;7840;42.702;23.296;2023-06-22T06:41:19;16.40;;;13.20;;
15476;SDS011;7840;42.702;23.296;2023-06-22T06:43:46;13.88;;;12.35;;
15476;SDS011;7840;42.702;23.296;2023-06-22T06:46:18;15.65;;;13.68;;
15476;SDS011;7840;42.702;23.296;2023-06-22T06:48:45;14.32;;;12.90;;
15476;SDS011;7840;42.702;23.296;2023-06-22T06:51:13;16.05;;;12.93;;
15476;SDS011;7840;42.702;23.296;2023-06-22T06:53:40;15.30;;;12.43;;
15476;SDS011;7840;42.702;23.296;2023-06-22T06:56:07;14.85;;;12.52;;
15476;SDS011;7840;42.702;23.296;2023-06-22T06:58:37;14.30;;;12.60;;
15476;SDS011;7840;42.702;23.296;2023-06-22T07:01:04;14.20;;;12.70;;
15476;SDS011;7840;42.702;23.296;2023-06-22T07:03:31;14.50;;;13.00;;
15476;SDS011;7840;42.702;23.296;2023-06-22T07:05:58;15.35;;;13.75;;
15476;SDS011;7840;42.702;23.296;2023-06-22T07:08:26;15.43;;;12.20;;
15476;SDS011;7840;42.702;23.296;2023-06-22T07:10:53;11.73;;;10.38;;
15476;SDS011;7840;42.702;23.296;2023-06-22T07:13:20;13.50;;;12.10;;
15476;SDS011;7840;42.702;23.296;2023-06-22T07:15:49;15.05;;;12.15;;
15476;SDS011;7840;42.702;23.296;2023-06-22T07:18:17;13.95;;;12.13;;
15476;SDS011;7840;42.702;23.296;2023-06-22T07:20:44;13.82;;;12.63;;
15476;SDS011;7840;42.702;23.296;2023-06-22T07:23:12;14.38;;;12.07;;
15476;SDS011;7840;42.702;23.296;2023-06-22T07:25:39;11.68;;;10.45;;
15476;SDS011;7840;42.702;23.296;2023-06-22T07:28:07;14.18;;;12.52;;
15476;SDS011;7840;42.702;23.296;2023-06-22T07:30:34;17.20;;;12.20;;
15476;SDS011;7840;42.702;23.296;2023-06-22T07:33:03;12.50;;;11.25;;
15476;SDS011;7840;42.702;23.296;2023-06-22T07:35:33;12.65;;;11.07;;
15476;SDS011;7840;42.702;23.296;2023-06-22T07:38:00;13.32;;;10.70;;
15476;SDS011;7840;42.702;23.296;2023-06-22T07:40:28;14.50;;;10.57;;
15476;SDS011;7840;42.702;23.296;2023-06-22T07:42:56;12.75;;;10.90;;
15476;SDS011;7840;42.702;23.296;2023-06-22T07:45:23;13.13;;;11.05;;
15476;SDS011;7840;42.702;23.296;2023-06-22T07:47:50;12.68;;;11.30;;
15476;SDS011;7840;42.702;23.296;2023-06-22T07:50:19;15.23;;;11.00;;
15476;SDS011;7840;42.702;23.296;2023-06-22T07:52:46;12.95;;;11.45;;
15476;SDS011;7840;42.702;23.296;2023-06-22T07:55:13;20.52;;;10.10;;
15476;SDS011;7840;42.702;23.296;2023-06-22T07:57:41;13.00;;;11.73;;
15476;SDS011;7840;42.702;23.296;2023-06-22T08:00:08;12.98;;;11.50;;
15476;SDS011;7840;42.702;23.296;2023-06-22T08:02:38;14.32;;;11.90;;
15476;SDS011;7840;42.702;23.296;2023-06-22T08:05:05;16.90;;;11.50;;
15476;SDS011;7840;42.702;23.296;2023-06-22T08:07:34;14.55;;;11.43;;
15476;SDS011;7840;42.702;23.296;2023-06-22T08:10:03;11.68;;;10.25;;
15476;SDS011;7840;42.702;23.296;2023-06-22T08:12:30;16.20;;;11.05;;
15476;SDS011;7840;42.702;23.296;2023-06-22T08:14:58;13.73;;;11.32;;
15476;SDS011;7840;42.702;23.296;2023-06-22T08:17:25;11.73;;;10.70;;
15476;SDS011;7840;42.702;23.296;2023-06-22T08:19:53;11.82;;;10.65;;
15476;SDS011;7840;42.702;23.296;2023-06-22T08:22:20;14.32;;;10.60;;
15476;SDS011;7840;42.702;23.296;2023-06-22T08:24:49;10.45;;;9.35;;
15476;SDS011;7840;42.702;23.296;2023-06-22T08:27:16;9.75;;;9.05;;
15476;SDS011;7840;42.702;23.296;2023-06-22T08:29:46;12.02;;;9.77;;
15476;SDS011;7840;42.702;23.296;2023-06-22T08:32:14;10.95;;;9.93;;
15476;SDS011;7840;42.702;23.296;2023-06-22T08:34:42;10.52;;;9.45;;
15476;SDS011;7840;42.702;23.296;2023-06-22T08:37:09;11.10;;;10.20;;
15476;SDS011;7840;42.702;23.296;2023-06-22T08:39:36;11.05;;;9.77;;
15476;SDS011;7840;42.702;23.296;2023-06-22T08:42:06;10.98;;;10.00;;
15476;SDS011;7840;42.702;23.296;2023-06-22T08:44:33;11.68;;;10.45;;
15476;SDS011;7840;42.702;23.296;2023-06-22T08:47:00;10.85;;;9.95;;
15476;SDS011;7840;42.702;23.296;2023-06-22T08:49:28;10.45;;;9.57;;
15476;SDS011;7840;42.702;23.296;2023-06-22T08:51:56;9.93;;;9.02;;
15476;SDS011;7840;42.702;23.296;2023-06-22T08:54:23;9.70;;;8.90;;
15476;SDS011;7840;42.702;23.296;2023-06-22T08:56:50;11.30;;;8.63;;
15476;SDS011;7840;42.702;23.296;2023-06-22T08:59:19;9.90;;;8.85;;
15476;SDS011;7840;42.702;23.296;2023-06-22T09:01:46;9.45;;;8.65;;
15476;SDS011;7840;42.702;23.296;2023-06-22T09:04:14;8.60;;;7.90;;
15476;SDS011;7840;42.702;23.296;2023-06-22T09:06:41;9.30;;;8.30;;
15476;SDS011;7840;42.702;23.296;2023-06-22T09:09:13;8.60;;;7.75;;
15476;SDS011;7840;42.702;23.296;2023-06-22T09:11:41;10.63;;;8.15;;
15476;SDS011;7840;42.702;23.296;2023-06-22T09:14:08;8.50;;;7.68;;
15476;SDS011;7840;42.702;23.296;2023-06-22T09:16:37;8.55;;;7.72;;
15476;SDS011;7840;42.702;23.296;2023-06-22T09:19:04;9.02;;;7.55;;
15476;SDS011;7840;42.702;23.296;2023-06-22T09:21:31;7.22;;;6.72;;
15476;SDS011;7840;42.702;23.296;2023-06-22T09:23:59;9.85;;;7.15;;
15476;SDS011;7840;42.702;23.296;2023-06-22T09:26:26;8.13;;;7.47;;
15476;SDS011;7840;42.702;23.296;2023-06-22T09:28:53;9.63;;;8.35;;
15476;SDS011;7840;42.702;23.296;2023-06-22T09:31:21;9.88;;;7.70;;
15476;SDS011;7840;42.702;23.296;2023-06-22T09:33:52;8.27;;;7.57;;
15476;SDS011;7840;42.702;23.296;2023-06-22T09:36:20;10.35;;;8.02;;
15476;SDS011;7840;42.702;23.296;2023-06-22T09:38:47;8.75;;;8.05;;
15476;SDS011;7840;42.702;23.296;2023-06-22T09:41:21;8.43;;;7.68;;
15476;SDS011;7840;42.702;23.296;2023-06-22T09:43:48;8.43;;;7.82;;
15476;SDS011;7840;42.702;23.296;2023-06-22T09:46:15;9.43;;;8.65;;
15476;SDS011;7840;42.702;23.296;2023-06-22T09:48:44;10.05;;;8.60;;
15476;SDS011;7840;42.702;23.296;2023-06-22T09:51:13;11.02;;;8.60;;
15476;SDS011;7840;42.702;23.296;2023-06-22T09:53:40;8.60;;;7.90;;
15476;SDS011;7840;42.702;23.296;2023-06-22T09:56:10;8.60;;;8.00;;
15476;SDS011;7840;42.702;23.296;2023-06-22T09:58:40;9.10;;;8.20;;
15476;SDS011;7840;42.702;23.296;2023-06-22T10:01:07;9.18;;;8.13;;
15476;SDS011;7840;42.702;23.296;2023-06-22T10:03:35;8.38;;;7.68;;
15476;SDS011;7840;42.702;23.296;2023-06-22T10:06:02;9.52;;;8.57;;
15476;SDS011;7840;42.702;23.296;2023-06-22T10:08:31;9.23;;;8.00;;
15476;SDS011;7840;42.702;23.296;2023-06-22T10:10:58;9.30;;;8.60;;
15476;SDS011;7840;42.702;23.296;2023-06-22T10:13:26;9.48;;;8.45;;
15476;SDS011;7840;42.702;23.296;2023-06-22T10:15:53;9.40;;;8.32;;
15476;SDS011;7840;42.702;23.296;2023-06-22T10:18:20;8.63;;;7.90;;
15476;SDS011;7840;42.702;23.296;2023-06-22T10:20:48;9.05;;;8.25;;
15476;SDS011;7840;42.702;23.296;2023-06-22T10:23:16;9.20;;;8.45;;
15476;SDS011;7840;42.702;23.296;2023-06-22T10:25:45;9.75;;;8.93;;
15476;SDS011;7840;42.702;23.296;2023-06-22T10:28:12;8.60;;;8.00;;
15476;SDS011;7840;42.702;23.296;2023-06-22T10:30:39;9.10;;;8.18;;
15476;SDS011;7840;42.702;23.296;2023-06-22T10:33:07;9.55;;;8.30;;
15476;SDS011;7840;42.702;23.296;2023-06-22T10:35:34;8.80;;;8.00;;
15476;SDS011;7840;42.702;23.296;2023-06-22T10:38:02;8.95;;;8.25;;
15476;SDS011;7840;42.702;23.296;2023-06-22T10:40:29;9.00;;;8.20;;
15476;SDS011;7840;42.702;23.296;2023-06-22T10:42:58;9.50;;;8.80;;
15476;SDS011;7840;42.702;23.296;2023-06-22T10:45:26;10.02;;;8.95;;
15476;SDS011;7840;42.702;23.296;2023-06-22T10:47:53;9.02;;;8.15;;
15476;SDS011;7840;42.702;23.296;2023-06-22T10:50:20;9.52;;;8.63;;
15476;SDS011;7840;42.702;23.296;2023-06-22T10:52:49;9.60;;;8.60;;
15476;SDS011;7840;42.702;23.296;2023-06-22T10:55:16;8.85;;;8.10;;
15476;SDS011;7840;42.702;23.296;2023-06-22T10:57:43;8.95;;;8.23;;
15476;SDS011;7840;42.702;23.296;2023-06-22T11:00:14;8.55;;;7.80;;
15476;SDS011;7840;42.702;23.296;2023-06-22T11:02:41;9.85;;;7.90;;
15476;SDS011;7840;42.702;23.296;2023-06-22T11:05:09;8.82;;;8.02;;
15476;SDS011;7840;42.702;23.296;2023-06-22T11:07:37;8.50;;;7.90;;
15476;SDS011;7840;42.702;23.296;2023-06-22T11:10:05;9.48;;;8.48;;
15476;SDS011;7840;42.702;23.296;2023-06-22T11:12:32;9.00;;;8.15;;
15476;SDS011;7840;42.702;23.296;2023-06-22T11:14:59;8.57;;;7.97;;
15476;SDS011;7840;42.702;23.296;2023-06-22T11:17:28;9.60;;;8.82;;
15476;SDS011;7840;42.702;23.296;2023-06-22T11:19:55;9.15;;;8.45;;
15476;SDS011;7840;42.702;23.296;2023-06-22T11:22:24;8.45;;;7.82;;
15476;SDS011;7840;42.702;23.296;2023-06-22T11:24:51;9.00;;;8.23;;
15476;SDS011;7840;42.702;23.296;2023-06-22T11:27:18;8.95;;;8.25;;
15476;SDS011;7840;42.702;23.296;2023-06-22T11:29:50;9.55;;;8.63;;
15476;SDS011;7840;42.702;23.296;2023-06-22T11:32:18;9.35;;;8.45;;
15476;SDS011;7840;42.702;23.296;2023-06-22T11:34:46;9.43;;;8.40;;
15476;SDS011;7840;42.702;23.296;2023-06-22T11:37:14;8.77;;;8.13;;
15476;SDS011;7840;42.702;23.296;2023-06-22T11:39:41;9.55;;;8.85;;
15476;SDS011;7840;42.702;23.296;2023-06-22T11:42:08;9.85;;;8.00;;
15476;SDS011;7840;42.702;23.296;2023-06-22T11:44:36;9.10;;;8.23;;
15476;SDS011;7840;42.702;23.296;2023-06-22T11:47:03;8.20;;;7.60;;
15476;SDS011;7840;42.702;23.296;2023-06-22T11:49:33;8.68;;;7.75;;
15476;SDS011;7840;42.702;23.296;2023-06-22T11:52:02;8.55;;;7.70;;
15476;SDS011;7840;42.702;23.296;2023-06-22T11:54:29;9.10;;;8.20;;
15476;SDS011;7840;42.702;23.296;2023-06-22T11:56:56;8.70;;;8.00;;
15476;SDS011;7840;42.702;23.296;2023-06-22T11:59:24;12.98;;;7.82;;
15476;SDS011;7840;42.702;23.296;2023-06-22T12:01:51;8.52;;;7.75;;
15476;SDS011;7840;42.702;23.296;2023-06-22T12:04:18;10.32;;;8.98;;
15476;SDS011;7840;42.702;23.296;2023-06-22T12:06:45;8.75;;;7.95;;
15476;SDS011;7840;42.702;23.296;2023-06-22T12:09:14;9.55;;;8.65;;
15476;SDS011;7840;42.702;23.296;2023-06-22T12:11:41;9.45;;;8.55;;
15476;SDS011;7840;42.702;23.296;2023-06-22T12:14:09;10.27;;;8.75;;
15476;SDS011;7840;42.702;23.296;2023-06-22T12:16:36;13.45;;;9.00;;
15476;SDS011;7840;42.702;23.296;2023-06-22T12:19:04;10.32;;;9.20;;
15476;SDS011;7840;42.702;23.296;2023-06-22T12:21:31;14.68;;;9.43;;
15476;SDS011;7840;42.702;23.296;2023-06-22T12:23:58;10.75;;;9.70;;
15476;SDS011;7840;42.702;23.296;2023-06-22T12:26:27;11.23;;;10.07;;
15476;SDS011;7840;42.702;23.296;2023-06-22T12:28:54;12.13;;;11.13;;
15476;SDS011;7840;42.702;23.296;2023-06-22T12:31:21;12.00;;;11.00;;
15476;SDS011;7840;42.702;23.296;2023-06-22T12:33:49;13.63;;;11.45;;
15476;SDS011;7840;42.702;23.296;2023-06-22T12:36:16;11.02;;;9.93;;
15476;SDS011;7840;42.702;23.296;2023-06-22T12:38:43;13.18;;;10.38;;
15476;SDS011;7840;42.702;23.296;2023-06-22T12:41:10;9.70;;;8.70;;
15476;SDS011;7840;42.702;23.296;2023-06-22T12:43:40;9.13;;;8.20;;
15476;SDS011;7840;42.702;23.296;2023-06-22T12:46:07;9.65;;;8.63;;
15476;SDS011;7840;42.702;23.296;2023-06-22T12:48:34;9.93;;;7.55;;
15476;SDS011;7840;42.702;23.296;2023-06-22T12:51:06;11.70;;;7.03;;
15476;SDS011;7840;42.702;23.296;2023-06-22T12:53:34;9.95;;;7.03;;
15476;SDS011;7840;42.702;23.296;2023-06-22T12:56:01;9.27;;;7.78;;
15476;SDS011;7840;42.702;23.296;2023-06-22T12:58:29;8.13;;;6.75;;
15476;SDS011;7840;42.702;23.296;2023-06-22T13:00:58;8.75;;;7.07;;
15476;SDS011;7840;42.702;23.296;2023-06-22T13:03:25;7.53;;;6.22;;
15476;SDS011;7840;42.702;23.296;2023-06-22T13:05:53;13.48;;;7.13;;
15476;SDS011;7840;42.702;23.296;2023-06-22T13:08:20;8.63;;;6.65;;
15476;SDS011;7840;42.702;23.296;2023-06-22T13:10:48;9.95;;;7.20;;
15476;SDS011;7840;42.702;23.296;2023-06-22T13:13:15;8.77;;;7.05;;
15476;SDS011;7840;42.702;23.296;2023-06-22T13:15:42;10.93;;;6.85;;
15476;SDS011;7840;42.702;23.296;2023-06-22T13:18:11;10.15;;;7.55;;
15476;SDS011;7840;42.702;23.296;2023-06-22T13:20:38;8.80;;;7.20;;
15476;SDS011;7840;42.702;23.296;2023-06-22T13:23:05;10.05;;;6.78;;
15476;SDS011;7840;42.702;23.296;2023-06-22T13:25:32;10.48;;;7.10;;
15476;SDS011;7840;42.702;23.296;2023-06-22T13:28:00;10.07;;;7.15;;
15476;SDS011;7840;42.702;23.296;2023-06-22T13:30:27;14.77;;;8.30;;
15476;SDS011;7840;42.702;23.296;2023-06-22T13:32:55;9.07;;;7.13;;
15476;SDS011;7840;42.702;23.296;2023-06-22T13:35:23;8.68;;;7.88;;
15476;SDS011;7840;42.702;23.296;2023-06-22T13:37:50;9.55;;;8.57;;
15476;SDS011;7840;42.702;23.296;2023-06-22T13:40:18;14.90;;;9.50;;
15476;SDS011;7840;42.702;23.296;2023-06-22T13:42:45;10.82;;;8.95;;
15476;SDS011;7840;42.702;23.296;2023-06-22T13:45:12;10.65;;;9.65;;
15476;SDS011;7840;42.702;23.296;2023-06-22T13:47:41;10.57;;;9.40;;
15476;SDS011;7840;42.702;23.296;2023-06-22T13:50:09;14.70;;;9.00;;
15476;SDS011;7840;42.702;23.296;2023-06-22T13:52:39;9.57;;;8.60;;
15476;SDS011;7840;42.702;23.296;2023-06-22T13:55:06;13.68;;;8.90;;
15476;SDS011;7840;42.702;23.296;2023-06-22T13:57:34;9.45;;;8.55;;
15476;SDS011;7840;42.702;23.296;2023-06-22T14:00:02;9.40;;;8.50;;
15476;SDS011;7840;42.702;23.296;2023-06-22T14:02:30;10.02;;;8.38;;
15476;SDS011;7840;42.702;23.296;2023-06-22T14:04:58;16.02;;;8.25;;
15476;SDS011;7840;42.702;23.296;2023-06-22T14:07:25;9.65;;;8.05;;
15476;SDS011;7840;42.702;23.296;2023-06-22T14:09:53;15.00;;;8.95;;
15476;SDS011;7840;42.702;23.296;2023-06-22T14:12:21;11.25;;;8.82;;
15476;SDS011;7840;42.702;23.296;2023-06-22T14:14:48;10.90;;;8.77;;
15476;SDS011;7840;42.702;23.296;2023-06-22T14:17:15;11.77;;;8.27;;
15476;SDS011;7840;42.702;23.296;2023-06-22T14:19:42;14.07;;;8.38;;
15476;SDS011;7840;42.702;23.296;2023-06-22T14:22:10;12.43;;;9.35;;
15476;SDS011;7840;42.702;23.296;2023-06-22T14:24:37;12.23;;;8.27;;
15476;SDS011;7840;42.702;23.296;2023-06-22T14:27:06;11.20;;;8.98;;
15476;SDS011;7840;42.702;23.296;2023-06-22T14:29:34;16.27;;;9.77;;
15476;SDS011;7840;42.702;23.296;2023-06-22T14:32:01;15.10;;;8.80;;
15476;SDS011;7840;42.702;23.296;2023-06-22T14:34:29;10.70;;;8.57;;
15476;SDS011;7840;42.702;23.296;2023-06-22T14:36:56;11.68;;;9.23;;